sensor_id;sensor_type;location;lat;lon;timestamp;temperature;humidity
70456;DHT22;57916;51.996;5.180;2023-09-12T00:01:20;25.40;67.20
70456;DHT22;57916;51.996;5.180;2023-09-12T00:03:48;25.30;67.20
70456;DHT22;57916;51.996;5.180;2023-09-12T00:06:15;25.30;67.50
70456;DHT22;57916;51.996;5.180;2023-09-12T00:08:42;25.20;67.60
70456;DHT22;57916;51.996;5.180;2023-09-12T00:11:10;25.20;67.70
70456;DHT22;57916;51.996;5.180;2023-09-12T00:13:39;25.10;67.50
70456;DHT22;57916;51.996;5.180;2023-09-12T00:16:07;25.10;67.90
70456;DHT22;57916;51.996;5.180;2023-09-12T00:18:39;25.10;68.20
70456;DHT22;57916;51.996;5.180;2023-09-12T00:21:07;25.10;68.00
70456;DHT22;57916;51.996;5.180;2023-09-12T00:23:35;25.00;67.70
70456;DHT22;57916;51.996;5.180;2023-09-12T00:26:02;25.00;67.90
70456;DHT22;57916;51.996;5.180;2023-09-12T00:28:29;24.90;68.00
70456;DHT22;57916;51.996;5.180;2023-09-12T00:30:56;25.00;68.20
70456;DHT22;57916;51.996;5.180;2023-09-12T00:33:22;24.90;68.20
70456;DHT22;57916;51.996;5.180;2023-09-12T00:35:51;24.80;68.00
70456;DHT22;57916;51.996;5.180;2023-09-12T00:38:18;24.80;68.00
70456;DHT22;57916;51.996;5.180;2023-09-12T00:40:45;24.80;67.80
70456;DHT22;57916;51.996;5.180;2023-09-12T00:43:12;24.70;67.10
70456;DHT22;57916;51.996;5.180;2023-09-12T00:45:39;24.60;67.30
70456;DHT22;57916;51.996;5.180;2023-09-12T00:48:08;24.50;67.90
70456;DHT22;57916;51.996;5.180;2023-09-12T00:50:36;24.40;68.50
70456;DHT22;57916;51.996;5.180;2023-09-12T00:53:04;24.30;68.80
70456;DHT22;57916;51.996;5.180;2023-09-12T00:55:34;24.30;68.70
70456;DHT22;57916;51.996;5.180;2023-09-12T00:58:03;24.30;69.20
70456;DHT22;57916;51.996;5.180;2023-09-12T01:00:30;24.30;69.20
70456;DHT22;57916;51.996;5.180;2023-09-12T01:02:58;24.30;69.10
70456;DHT22;57916;51.996;5.180;2023-09-12T01:05:25;24.20;68.90
70456;DHT22;57916;51.996;5.180;2023-09-12T01:07:53;24.10;69.20
70456;DHT22;57916;51.996;5.180;2023-09-12T01:10:20;24.10;69.50
70456;DHT22;57916;51.996;5.180;2023-09-12T01:12:47;24.10;70.00
70456;DHT22;57916;51.996;5.180;2023-09-12T01:15:14;24.10;70.10
70456;DHT22;57916;51.996;5.180;2023-09-12T01:17:42;24.10;69.70
70456;DHT22;57916;51.996;5.180;2023-09-12T01:20:33;24.00;69.80
70456;DHT22;57916;51.996;5.180;2023-09-12T01:26:08;23.90;69.10
70456;DHT22;57916;51.996;5.180;2023-09-12T01:28:44;23.80;69.10
70456;DHT22;57916;51.996;5.180;2023-09-12T01:31:12;23.80;69.70
70456;DHT22;57916;51.996;5.180;2023-09-12T01:33:40;23.80;69.90
70456;DHT22;57916;51.996;5.180;2023-09-12T01:36:09;23.80;70.20
70456;DHT22;57916;51.996;5.180;2023-09-12T01:38:37;23.80;70.50
70456;DHT22;57916;51.996;5.180;2023-09-12T01:41:04;23.80;70.30
70456;DHT22;57916;51.996;5.180;2023-09-12T01:43:31;23.70;70.20
70456;DHT22;57916;51.996;5.180;2023-09-12T01:46:00;23.70;70.40
70456;DHT22;57916;51.996;5.180;2023-09-12T01:48:32;23.60;70.40
70456;DHT22;57916;51.996;5.180;2023-09-12T01:51:01;23.70;70.60
70456;DHT22;57916;51.996;5.180;2023-09-12T01:53:29;23.60;70.70
70456;DHT22;57916;51.996;5.180;2023-09-12T01:55:57;23.70;70.90
70456;DHT22;57916;51.996;5.180;2023-09-12T01:58:26;23.60;71.00
70456;DHT22;57916;51.996;5.180;2023-09-12T02:00:53;23.60;69.40
70456;DHT22;57916;51.996;5.180;2023-09-12T02:03:21;23.70;68.50
70456;DHT22;57916;51.996;5.180;2023-09-12T02:05:48;23.70;68.60
70456;DHT22;57916;51.996;5.180;2023-09-12T02:08:15;23.70;68.90
70456;DHT22;57916;51.996;5.180;2023-09-12T02:10:42;23.70;68.40
70456;DHT22;57916;51.996;5.180;2023-09-12T02:13:09;23.70;68.90
70456;DHT22;57916;51.996;5.180;2023-09-12T02:15:36;23.70;69.90
70456;DHT22;57916;51.996;5.180;2023-09-12T02:18:03;23.70;70.20
70456;DHT22;57916;51.996;5.180;2023-09-12T02:20:31;23.60;70.30
70456;DHT22;57916;51.996;5.180;2023-09-12T02:22:59;23.60;70.50
70456;DHT22;57916;51.996;5.180;2023-09-12T02:25:25;23.60;70.80
70456;DHT22;57916;51.996;5.180;2023-09-12T02:27:52;23.50;71.00
70456;DHT22;57916;51.996;5.180;2023-09-12T02:30:19;23.50;71.00
70456;DHT22;57916;51.996;5.180;2023-09-12T02:32:47;23.40;71.00
70456;DHT22;57916;51.996;5.180;2023-09-12T02:35:14;23.30;70.70
70456;DHT22;57916;51.996;5.180;2023-09-12T02:37:41;23.20;71.00
70456;DHT22;57916;51.996;5.180;2023-09-12T02:40:08;23.20;71.40
70456;DHT22;57916;51.996;5.180;2023-09-12T02:42:38;23.20;71.70
70456;DHT22;57916;51.996;5.180;2023-09-12T02:45:05;23.20;72.00
70456;DHT22;57916;51.996;5.180;2023-09-12T02:47:32;23.20;71.70
70456;DHT22;57916;51.996;5.180;2023-09-12T02:49:59;23.30;71.60
70456;DHT22;57916;51.996;5.180;2023-09-12T02:52:26;23.30;71.10
70456;DHT22;57916;51.996;5.180;2023-09-12T02:54:53;23.40;71.00
70456;DHT22;57916;51.996;5.180;2023-09-12T02:57:20;23.30;71.30
70456;DHT22;57916;51.996;5.180;2023-09-12T02:59:48;23.30;71.50
70456;DHT22;57916;51.996;5.180;2023-09-12T03:02:15;23.30;71.60
70456;DHT22;57916;51.996;5.180;2023-09-12T03:04:42;23.20;71.40
70456;DHT22;57916;51.996;5.180;2023-09-12T03:07:09;23.20;71.30
70456;DHT22;57916;51.996;5.180;2023-09-12T03:09:36;23.10;71.30
70456;DHT22;57916;51.996;5.180;2023-09-12T03:12:05;23.00;71.10
70456;DHT22;57916;51.996;5.180;2023-09-12T03:14:33;22.90;71.00
70456;DHT22;57916;51.996;5.180;2023-09-12T03:17:00;22.80;71.40
70456;DHT22;57916;51.996;5.180;2023-09-12T03:19:27;22.80;71.40
70456;DHT22;57916;51.996;5.180;2023-09-12T03:21:56;22.80;71.80
70456;DHT22;57916;51.996;5.180;2023-09-12T03:24:23;22.80;71.60
70456;DHT22;57916;51.996;5.180;2023-09-12T03:26:52;22.70;71.40
70456;DHT22;57916;51.996;5.180;2023-09-12T03:29:19;22.80;71.80
70456;DHT22;57916;51.996;5.180;2023-09-12T03:31:47;22.80;72.00
70456;DHT22;57916;51.996;5.180;2023-09-12T03:34:14;22.80;72.20
70456;DHT22;57916;51.996;5.180;2023-09-12T03:36:41;22.80;73.00
70456;DHT22;57916;51.996;5.180;2023-09-12T03:39:08;22.80;72.10
70456;DHT22;57916;51.996;5.180;2023-09-12T03:41:35;22.80;72.20
70456;DHT22;57916;51.996;5.180;2023-09-12T03:44:03;22.90;72.40
70456;DHT22;57916;51.996;5.180;2023-09-12T03:46:30;22.90;72.10
70456;DHT22;57916;51.996;5.180;2023-09-12T03:48:57;22.90;72.10
70456;DHT22;57916;51.996;5.180;2023-09-12T03:51:24;22.90;72.20
70456;DHT22;57916;51.996;5.180;2023-09-12T03:53:51;22.90;72.40
70456;DHT22;57916;51.996;5.180;2023-09-12T03:56:18;22.90;72.40
70456;DHT22;57916;51.996;5.180;2023-09-12T03:58:47;22.90;72.40
70456;DHT22;57916;51.996;5.180;2023-09-12T04:01:14;22.90;72.20
70456;DHT22;57916;51.996;5.180;2023-09-12T04:03:41;22.90;72.20
70456;DHT22;57916;51.996;5.180;2023-09-12T04:06:09;22.90;72.50
70456;DHT22;57916;51.996;5.180;2023-09-12T04:08:37;22.90;72.40
70456;DHT22;57916;51.996;5.180;2023-09-12T04:11:04;22.90;72.40
70456;DHT22;57916;51.996;5.180;2023-09-12T04:13:31;22.90;72.50
70456;DHT22;57916;51.996;5.180;2023-09-12T04:15:58;22.90;72.50
70456;DHT22;57916;51.996;5.180;2023-09-12T04:18:26;22.90;72.70
70456;DHT22;57916;51.996;5.180;2023-09-12T04:20:53;22.90;72.40
70456;DHT22;57916;51.996;5.180;2023-09-12T04:23:22;22.80;72.10
70456;DHT22;57916;51.996;5.180;2023-09-12T04:25:49;22.90;72.50
70456;DHT22;57916;51.996;5.180;2023-09-12T04:28:16;22.90;72.60
70456;DHT22;57916;51.996;5.180;2023-09-12T04:30:43;22.80;72.50
70456;DHT22;57916;51.996;5.180;2023-09-12T04:33:13;22.90;72.50
70456;DHT22;57916;51.996;5.180;2023-09-12T04:35:40;22.90;72.60
70456;DHT22;57916;51.996;5.180;2023-09-12T04:38:07;22.90;72.70
70456;DHT22;57916;51.996;5.180;2023-09-12T04:40:34;22.90;72.40
70456;DHT22;57916;51.996;5.180;2023-09-12T04:43:01;22.90;72.10
70456;DHT22;57916;51.996;5.180;2023-09-12T04:45:29;22.80;72.00
70456;DHT22;57916;51.996;5.180;2023-09-12T04:47:56;22.70;72.10
70456;DHT22;57916;51.996;5.180;2023-09-12T04:50:23;22.70;72.40
70456;DHT22;57916;51.996;5.180;2023-09-12T04:52:50;22.70;72.30
70456;DHT22;57916;51.996;5.180;2023-09-12T04:55:17;22.70;72.10
70456;DHT22;57916;51.996;5.180;2023-09-12T04:57:44;22.70;71.90
70456;DHT22;57916;51.996;5.180;2023-09-12T05:00:11;22.70;71.90
70456;DHT22;57916;51.996;5.180;2023-09-12T05:02:39;22.60;71.90
70456;DHT22;57916;51.996;5.180;2023-09-12T05:05:06;22.60;72.20
70456;DHT22;57916;51.996;5.180;2023-09-12T05:07:33;22.50;72.40
70456;DHT22;57916;51.996;5.180;2023-09-12T05:10:00;22.50;72.30
70456;DHT22;57916;51.996;5.180;2023-09-12T05:12:27;22.40;72.70
70456;DHT22;57916;51.996;5.180;2023-09-12T05:14:54;22.40;72.90
70456;DHT22;57916;51.996;5.180;2023-09-12T05:17:21;22.30;72.90
70456;DHT22;57916;51.996;5.180;2023-09-12T05:19:49;22.30;73.10
70456;DHT22;57916;51.996;5.180;2023-09-12T05:22:15;22.30;73.20
70456;DHT22;57916;51.996;5.180;2023-09-12T05:24:42;22.30;73.70
70456;DHT22;57916;51.996;5.180;2023-09-12T05:27:10;22.30;73.10
70456;DHT22;57916;51.996;5.180;2023-09-12T05:29:37;22.20;73.10
70456;DHT22;57916;51.996;5.180;2023-09-12T05:32:05;22.20;73.30
70456;DHT22;57916;51.996;5.180;2023-09-12T05:34:32;22.20;73.40
70456;DHT22;57916;51.996;5.180;2023-09-12T05:36:59;22.20;73.60
70456;DHT22;57916;51.996;5.180;2023-09-12T05:39:26;22.20;73.80
70456;DHT22;57916;51.996;5.180;2023-09-12T05:41:53;22.30;73.70
70456;DHT22;57916;51.996;5.180;2023-09-12T05:44:20;22.40;74.10
70456;DHT22;57916;51.996;5.180;2023-09-12T05:46:48;22.40;73.80
70456;DHT22;57916;51.996;5.180;2023-09-12T05:49:15;22.40;73.70
70456;DHT22;57916;51.996;5.180;2023-09-12T05:51:43;22.40;73.60
70456;DHT22;57916;51.996;5.180;2023-09-12T05:54:10;22.40;73.80
70456;DHT22;57916;51.996;5.180;2023-09-12T05:56:40;22.40;74.10
70456;DHT22;57916;51.996;5.180;2023-09-12T05:59:08;22.40;74.20
70456;DHT22;57916;51.996;5.180;2023-09-12T06:01:35;22.50;74.30
70456;DHT22;57916;51.996;5.180;2023-09-12T06:04:02;22.50;74.00
70456;DHT22;57916;51.996;5.180;2023-09-12T06:06:29;22.50;74.80
70456;DHT22;57916;51.996;5.180;2023-09-12T06:08:56;22.50;73.90
70456;DHT22;57916;51.996;5.180;2023-09-12T06:11:24;22.40;74.10
70456;DHT22;57916;51.996;5.180;2023-09-12T06:13:51;22.50;74.20
70456;DHT22;57916;51.996;5.180;2023-09-12T06:16:18;22.50;74.10
70456;DHT22;57916;51.996;5.180;2023-09-12T06:18:46;22.50;74.40
70456;DHT22;57916;51.996;5.180;2023-09-12T06:21:15;22.50;74.40
70456;DHT22;57916;51.996;5.180;2023-09-12T06:23:42;22.60;74.40
70456;DHT22;57916;51.996;5.180;2023-09-12T06:26:09;22.60;74.30
70456;DHT22;57916;51.996;5.180;2023-09-12T06:28:36;22.70;74.20
70456;DHT22;57916;51.996;5.180;2023-09-12T06:31:03;22.70;74.20
70456;DHT22;57916;51.996;5.180;2023-09-12T06:33:30;22.70;74.40
70456;DHT22;57916;51.996;5.180;2023-09-12T06:35:57;22.70;74.60
70456;DHT22;57916;51.996;5.180;2023-09-12T06:38:24;22.70;74.60
70456;DHT22;57916;51.996;5.180;2023-09-12T06:40:51;22.80;74.60
70456;DHT22;57916;51.996;5.180;2023-09-12T06:43:18;22.80;74.60
70456;DHT22;57916;51.996;5.180;2023-09-12T06:45:45;22.80;74.60
70456;DHT22;57916;51.996;5.180;2023-09-12T06:48:12;22.80;74.40
70456;DHT22;57916;51.996;5.180;2023-09-12T06:50:40;22.90;74.70
70456;DHT22;57916;51.996;5.180;2023-09-12T06:53:07;22.90;74.70
70456;DHT22;57916;51.996;5.180;2023-09-12T06:55:34;22.90;74.90
70456;DHT22;57916;51.996;5.180;2023-09-12T06:58:01;23.00;74.80
70456;DHT22;57916;51.996;5.180;2023-09-12T07:00:28;23.00;74.70
70456;DHT22;57916;51.996;5.180;2023-09-12T07:02:55;23.00;74.70
70456;DHT22;57916;51.996;5.180;2023-09-12T07:05:22;23.10;74.80
70456;DHT22;57916;51.996;5.180;2023-09-12T07:07:49;23.10;74.80
70456;DHT22;57916;51.996;5.180;2023-09-12T07:10:16;23.20;74.90
70456;DHT22;57916;51.996;5.180;2023-09-12T07:12:52;23.20;74.90
70456;DHT22;57916;51.996;5.180;2023-09-12T07:15:19;23.20;74.60
70456;DHT22;57916;51.996;5.180;2023-09-12T07:17:46;23.30;74.40
70456;DHT22;57916;51.996;5.180;2023-09-12T07:20:14;23.30;74.30
70456;DHT22;57916;51.996;5.180;2023-09-12T07:22:42;23.40;74.50
70456;DHT22;57916;51.996;5.180;2023-09-12T07:25:09;23.40;74.40
70456;DHT22;57916;51.996;5.180;2023-09-12T07:27:39;23.40;74.40
70456;DHT22;57916;51.996;5.180;2023-09-12T07:30:07;23.40;74.20
70456;DHT22;57916;51.996;5.180;2023-09-12T07:32:34;23.40;75.10
70456;DHT22;57916;51.996;5.180;2023-09-12T07:35:01;23.50;76.40
70456;DHT22;57916;51.996;5.180;2023-09-12T07:37:28;23.70;76.60
70456;DHT22;57916;51.996;5.180;2023-09-12T07:39:55;23.90;75.40
70456;DHT22;57916;51.996;5.180;2023-09-12T07:42:23;24.00;74.00
70456;DHT22;57916;51.996;5.180;2023-09-12T07:44:50;24.10;73.50
70456;DHT22;57916;51.996;5.180;2023-09-12T07:47:18;24.30;73.90
70456;DHT22;57916;51.996;5.180;2023-09-12T07:49:45;24.40;73.60
70456;DHT22;57916;51.996;5.180;2023-09-12T07:52:12;24.50;74.00
70456;DHT22;57916;51.996;5.180;2023-09-12T07:54:39;24.70;74.10
70456;DHT22;57916;51.996;5.180;2023-09-12T07:57:06;24.80;73.40
70456;DHT22;57916;51.996;5.180;2023-09-12T07:59:33;25.00;72.70
70456;DHT22;57916;51.996;5.180;2023-09-12T08:02:01;25.20;71.60
70456;DHT22;57916;51.996;5.180;2023-09-12T08:04:29;25.20;70.90
70456;DHT22;57916;51.996;5.180;2023-09-12T08:06:56;25.20;71.00
70456;DHT22;57916;51.996;5.180;2023-09-12T08:09:48;25.20;71.20
70456;DHT22;57916;51.996;5.180;2023-09-12T08:12:16;25.20;71.60
70456;DHT22;57916;51.996;5.180;2023-09-12T08:14:43;25.20;70.70
70456;DHT22;57916;51.996;5.180;2023-09-12T08:17:12;25.10;70.90
70456;DHT22;57916;51.996;5.180;2023-09-12T08:19:39;25.00;72.00
70456;DHT22;57916;51.996;5.180;2023-09-12T08:22:07;25.00;71.90
70456;DHT22;57916;51.996;5.180;2023-09-12T08:24:36;25.10;71.80
70456;DHT22;57916;51.996;5.180;2023-09-12T08:27:03;25.20;71.50
70456;DHT22;57916;51.996;5.180;2023-09-12T08:29:32;25.30;71.30
70456;DHT22;57916;51.996;5.180;2023-09-12T08:32:00;25.40;71.10
70456;DHT22;57916;51.996;5.180;2023-09-12T08:34:27;25.40;71.20
70456;DHT22;57916;51.996;5.180;2023-09-12T08:36:54;25.60;71.50
70456;DHT22;57916;51.996;5.180;2023-09-12T08:39:26;25.70;70.50
70456;DHT22;57916;51.996;5.180;2023-09-12T08:41:54;25.70;70.00
70456;DHT22;57916;51.996;5.180;2023-09-12T08:44:21;25.80;69.00
70456;DHT22;57916;51.996;5.180;2023-09-12T08:46:48;25.70;69.00
70456;DHT22;57916;51.996;5.180;2023-09-12T08:49:16;25.70;68.90
70456;DHT22;57916;51.996;5.180;2023-09-12T08:51:43;25.70;69.70
70456;DHT22;57916;51.996;5.180;2023-09-12T08:54:11;25.70;69.10
70456;DHT22;57916;51.996;5.180;2023-09-12T08:56:40;25.80;69.70
70456;DHT22;57916;51.996;5.180;2023-09-12T08:59:10;25.80;68.80
70456;DHT22;57916;51.996;5.180;2023-09-12T09:01:38;25.80;68.60
70456;DHT22;57916;51.996;5.180;2023-09-12T09:04:06;25.80;68.70
70456;DHT22;57916;51.996;5.180;2023-09-12T09:06:34;25.80;68.40
70456;DHT22;57916;51.996;5.180;2023-09-12T09:09:05;25.80;68.80
70456;DHT22;57916;51.996;5.180;2023-09-12T09:11:35;25.80;68.80
70456;DHT22;57916;51.996;5.180;2023-09-12T09:14:02;25.70;68.90
70456;DHT22;57916;51.996;5.180;2023-09-12T09:16:30;25.70;69.40
70456;DHT22;57916;51.996;5.180;2023-09-12T09:19:01;25.70;68.60
70456;DHT22;57916;51.996;5.180;2023-09-12T09:21:31;25.70;68.40
70456;DHT22;57916;51.996;5.180;2023-09-12T09:24:04;25.60;68.50
70456;DHT22;57916;51.996;5.180;2023-09-12T09:29:13;25.60;69.40
70456;DHT22;57916;51.996;5.180;2023-09-12T09:31:41;25.70;69.40
70456;DHT22;57916;51.996;5.180;2023-09-12T09:34:13;25.70;69.10
70456;DHT22;57916;51.996;5.180;2023-09-12T09:36:54;25.70;67.90
70456;DHT22;57916;51.996;5.180;2023-09-12T09:39:24;25.60;68.00
70456;DHT22;57916;51.996;5.180;2023-09-12T09:41:53;25.60;68.50
70456;DHT22;57916;51.996;5.180;2023-09-12T09:44:25;25.60;68.40
70456;DHT22;57916;51.996;5.180;2023-09-12T09:46:59;25.60;68.60
70456;DHT22;57916;51.996;5.180;2023-09-12T09:49:33;25.70;68.20
70456;DHT22;57916;51.996;5.180;2023-09-12T09:52:04;25.80;69.40
70456;DHT22;57916;51.996;5.180;2023-09-12T09:54:31;25.90;67.40
70456;DHT22;57916;51.996;5.180;2023-09-12T09:56:58;26.00;67.10
70456;DHT22;57916;51.996;5.180;2023-09-12T09:59:26;26.10;67.60
70456;DHT22;57916;51.996;5.180;2023-09-12T10:01:56;26.20;66.50
70456;DHT22;57916;51.996;5.180;2023-09-12T10:04:27;26.20;66.60
70456;DHT22;57916;51.996;5.180;2023-09-12T10:06:56;26.20;67.30
70456;DHT22;57916;51.996;5.180;2023-09-12T10:09:26;26.40;67.10
70456;DHT22;57916;51.996;5.180;2023-09-12T10:11:54;26.60;67.20
70456;DHT22;57916;51.996;5.180;2023-09-12T10:14:22;26.70;66.60
70456;DHT22;57916;51.996;5.180;2023-09-12T10:16:50;26.80;66.70
70456;DHT22;57916;51.996;5.180;2023-09-12T10:19:24;26.90;64.90
70456;DHT22;57916;51.996;5.180;2023-09-12T10:22:34;27.10;64.80
70456;DHT22;57916;51.996;5.180;2023-09-12T10:25:02;27.20;64.50
70456;DHT22;57916;51.996;5.180;2023-09-12T10:27:30;27.30;64.20
70456;DHT22;57916;51.996;5.180;2023-09-12T10:29:58;27.50;63.60
70456;DHT22;57916;51.996;5.180;2023-09-12T10:32:28;27.50;64.30
70456;DHT22;57916;51.996;5.180;2023-09-12T10:34:58;27.60;62.70
70456;DHT22;57916;51.996;5.180;2023-09-12T10:37:27;27.70;62.60
70456;DHT22;57916;51.996;5.180;2023-09-12T10:39:56;27.90;63.40
70456;DHT22;57916;51.996;5.180;2023-09-12T10:42:24;28.10;62.70
70456;DHT22;57916;51.996;5.180;2023-09-12T10:44:54;28.30;60.80
70456;DHT22;57916;51.996;5.180;2023-09-12T10:47:22;28.40;59.40
70456;DHT22;57916;51.996;5.180;2023-09-12T10:49:49;28.50;59.30
70456;DHT22;57916;51.996;5.180;2023-09-12T10:52:26;28.60;59.00
70456;DHT22;57916;51.996;5.180;2023-09-12T10:54:54;28.60;58.50
70456;DHT22;57916;51.996;5.180;2023-09-12T10:57:21;28.60;58.50
70456;DHT22;57916;51.996;5.180;2023-09-12T11:02:38;28.60;58.20
70456;DHT22;57916;51.996;5.180;2023-09-12T11:07:59;29.00;58.60
70456;DHT22;57916;51.996;5.180;2023-09-12T11:10:27;29.20;58.50
70456;DHT22;57916;51.996;5.180;2023-09-12T11:12:55;29.30;56.80
70456;DHT22;57916;51.996;5.180;2023-09-12T11:15:26;29.10;56.80
70456;DHT22;57916;51.996;5.180;2023-09-12T11:18:04;29.10;56.70
70456;DHT22;57916;51.996;5.180;2023-09-12T11:21:12;29.20;57.30
70456;DHT22;57916;51.996;5.180;2023-09-12T11:23:39;29.20;58.60
70456;DHT22;57916;51.996;5.180;2023-09-12T11:26:08;29.20;58.50
70456;DHT22;57916;51.996;5.180;2023-09-12T11:28:38;29.30;57.60
70456;DHT22;57916;51.996;5.180;2023-09-12T11:31:06;29.30;57.90
70456;DHT22;57916;51.996;5.180;2023-09-12T11:33:33;29.30;56.90
70456;DHT22;57916;51.996;5.180;2023-09-12T11:36:01;29.30;57.00
70456;DHT22;57916;51.996;5.180;2023-09-12T11:38:31;29.20;58.00
70456;DHT22;57916;51.996;5.180;2023-09-12T11:40:59;29.30;57.30
70456;DHT22;57916;51.996;5.180;2023-09-12T11:43:28;29.30;55.90
70456;DHT22;57916;51.996;5.180;2023-09-12T11:45:56;29.30;56.20
70456;DHT22;57916;51.996;5.180;2023-09-12T11:48:23;29.30;56.20
70456;DHT22;57916;51.996;5.180;2023-09-12T11:50:53;29.30;55.50
70456;DHT22;57916;51.996;5.180;2023-09-12T11:53:25;29.40;55.50
70456;DHT22;57916;51.996;5.180;2023-09-12T11:55:55;29.40;55.80
70456;DHT22;57916;51.996;5.180;2023-09-12T11:58:24;29.50;56.40
70456;DHT22;57916;51.996;5.180;2023-09-12T12:00:53;29.60;55.60
70456;DHT22;57916;51.996;5.180;2023-09-12T12:03:23;29.60;56.70
70456;DHT22;57916;51.996;5.180;2023-09-12T12:05:51;29.70;57.20
70456;DHT22;57916;51.996;5.180;2023-09-12T12:08:19;29.70;55.00
70456;DHT22;57916;51.996;5.180;2023-09-12T12:10:52;29.70;55.00
70456;DHT22;57916;51.996;5.180;2023-09-12T12:13:21;29.70;55.30
70456;DHT22;57916;51.996;5.180;2023-09-12T12:15:48;29.60;54.90
70456;DHT22;57916;51.996;5.180;2023-09-12T12:18:16;29.60;54.70
70456;DHT22;57916;51.996;5.180;2023-09-12T12:20:43;29.50;54.50
70456;DHT22;57916;51.996;5.180;2023-09-12T12:23:10;29.50;54.70
70456;DHT22;57916;51.996;5.180;2023-09-12T12:25:37;29.60;57.10
70456;DHT22;57916;51.996;5.180;2023-09-12T12:28:04;29.70;53.20
70456;DHT22;57916;51.996;5.180;2023-09-12T12:30:36;29.60;53.80
70456;DHT22;57916;51.996;5.180;2023-09-12T12:33:08;29.70;54.80
70456;DHT22;57916;51.996;5.180;2023-09-12T12:36:05;29.80;54.20
70456;DHT22;57916;51.996;5.180;2023-09-12T12:38:38;29.90;52.70
70456;DHT22;57916;51.996;5.180;2023-09-12T12:41:29;29.90;53.90
70456;DHT22;57916;51.996;5.180;2023-09-12T12:44:13;30.00;53.70
70456;DHT22;57916;51.996;5.180;2023-09-12T12:46:53;29.90;52.70
70456;DHT22;57916;51.996;5.180;2023-09-12T12:49:21;29.90;53.60
70456;DHT22;57916;51.996;5.180;2023-09-12T12:51:49;29.80;51.30
70456;DHT22;57916;51.996;5.180;2023-09-12T12:54:16;29.80;52.50
70456;DHT22;57916;51.996;5.180;2023-09-12T12:56:43;29.80;51.40
70456;DHT22;57916;51.996;5.180;2023-09-12T12:59:13;29.80;51.10
70456;DHT22;57916;51.996;5.180;2023-09-12T13:01:44;29.70;50.30
70456;DHT22;57916;51.996;5.180;2023-09-12T13:04:11;29.70;51.00
70456;DHT22;57916;51.996;5.180;2023-09-12T13:06:38;29.60;52.30
70456;DHT22;57916;51.996;5.180;2023-09-12T13:09:06;29.50;53.00
70456;DHT22;57916;51.996;5.180;2023-09-12T13:11:35;29.50;53.70
70456;DHT22;57916;51.996;5.180;2023-09-12T13:14:03;29.50;53.10
70456;DHT22;57916;51.996;5.180;2023-09-12T13:16:37;29.50;52.70
70456;DHT22;57916;51.996;5.180;2023-09-12T13:19:06;29.50;52.20
70456;DHT22;57916;51.996;5.180;2023-09-12T13:21:33;29.50;52.00
70456;DHT22;57916;51.996;5.180;2023-09-12T13:24:00;29.40;51.60
70456;DHT22;57916;51.996;5.180;2023-09-12T13:26:29;29.40;50.80
70456;DHT22;57916;51.996;5.180;2023-09-12T13:28:59;29.40;52.30
70456;DHT22;57916;51.996;5.180;2023-09-12T13:31:26;29.40;54.40
70456;DHT22;57916;51.996;5.180;2023-09-12T13:33:53;29.40;53.10
70456;DHT22;57916;51.996;5.180;2023-09-12T13:36:20;29.40;52.10
70456;DHT22;57916;51.996;5.180;2023-09-12T13:38:47;29.40;52.60
70456;DHT22;57916;51.996;5.180;2023-09-12T13:41:15;29.40;54.40
70456;DHT22;57916;51.996;5.180;2023-09-12T13:43:42;29.40;54.70
70456;DHT22;57916;51.996;5.180;2023-09-12T13:46:12;29.50;53.10
70456;DHT22;57916;51.996;5.180;2023-09-12T13:48:40;29.50;52.90
70456;DHT22;57916;51.996;5.180;2023-09-12T13:51:07;29.50;55.00
70456;DHT22;57916;51.996;5.180;2023-09-12T13:53:34;29.50;55.50
70456;DHT22;57916;51.996;5.180;2023-09-12T13:56:01;29.50;55.00
70456;DHT22;57916;51.996;5.180;2023-09-12T13:58:29;29.50;53.70
70456;DHT22;57916;51.996;5.180;2023-09-12T14:01:08;29.40;55.00
70456;DHT22;57916;51.996;5.180;2023-09-12T14:03:37;29.40;53.90
70456;DHT22;57916;51.996;5.180;2023-09-12T14:06:05;29.40;54.20
70456;DHT22;57916;51.996;5.180;2023-09-12T14:08:32;29.30;53.80
70456;DHT22;57916;51.996;5.180;2023-09-12T14:10:59;29.40;53.30
70456;DHT22;57916;51.996;5.180;2023-09-12T14:13:27;29.30;54.20
70456;DHT22;57916;51.996;5.180;2023-09-12T14:15:55;29.30;54.00
70456;DHT22;57916;51.996;5.180;2023-09-12T14:18:24;29.20;54.50
70456;DHT22;57916;51.996;5.180;2023-09-12T14:20:53;29.20;55.00
70456;DHT22;57916;51.996;5.180;2023-09-12T14:23:20;29.10;54.80
70456;DHT22;57916;51.996;5.180;2023-09-12T14:25:48;29.10;54.30
70456;DHT22;57916;51.996;5.180;2023-09-12T14:28:16;29.10;54.00
70456;DHT22;57916;51.996;5.180;2023-09-12T14:30:45;29.20;55.60
70456;DHT22;57916;51.996;5.180;2023-09-12T14:33:12;29.10;55.00
70456;DHT22;57916;51.996;5.180;2023-09-12T14:35:44;29.20;54.20
70456;DHT22;57916;51.996;5.180;2023-09-12T14:38:11;29.10;54.60
70456;DHT22;57916;51.996;5.180;2023-09-12T14:40:38;29.20;54.10
70456;DHT22;57916;51.996;5.180;2023-09-12T14:43:10;29.10;55.10
70456;DHT22;57916;51.996;5.180;2023-09-12T14:45:37;29.10;54.30
70456;DHT22;57916;51.996;5.180;2023-09-12T14:48:05;29.10;54.70
70456;DHT22;57916;51.996;5.180;2023-09-12T14:50:34;29.10;55.30
70456;DHT22;57916;51.996;5.180;2023-09-12T14:53:10;29.10;54.80
70456;DHT22;57916;51.996;5.180;2023-09-12T14:55:38;29.20;53.70
70456;DHT22;57916;51.996;5.180;2023-09-12T14:58:06;29.20;53.60
70456;DHT22;57916;51.996;5.180;2023-09-12T15:00:33;29.10;53.80
70456;DHT22;57916;51.996;5.180;2023-09-12T15:03:01;29.10;54.50
70456;DHT22;57916;51.996;5.180;2023-09-12T15:05:28;29.10;54.10
70456;DHT22;57916;51.996;5.180;2023-09-12T15:07:55;29.10;53.90
70456;DHT22;57916;51.996;5.180;2023-09-12T15:10:22;29.00;54.20
70456;DHT22;57916;51.996;5.180;2023-09-12T15:12:49;29.00;54.60
70456;DHT22;57916;51.996;5.180;2023-09-12T15:15:16;29.00;55.00
70456;DHT22;57916;51.996;5.180;2023-09-12T15:17:44;29.00;53.90
70456;DHT22;57916;51.996;5.180;2023-09-12T15:20:11;29.00;54.70
70456;DHT22;57916;51.996;5.180;2023-09-12T15:22:38;28.90;54.50
70456;DHT22;57916;51.996;5.180;2023-09-12T15:25:05;28.90;55.40
70456;DHT22;57916;51.996;5.180;2023-09-12T15:27:33;29.00;55.70
70456;DHT22;57916;51.996;5.180;2023-09-12T15:30:04;29.00;55.40
70456;DHT22;57916;51.996;5.180;2023-09-12T15:32:32;28.90;55.00
70456;DHT22;57916;51.996;5.180;2023-09-12T15:35:00;28.90;55.50
70456;DHT22;57916;51.996;5.180;2023-09-12T15:37:30;29.00;55.30
70456;DHT22;57916;51.996;5.180;2023-09-12T15:39:57;29.00;55.30
70456;DHT22;57916;51.996;5.180;2023-09-12T15:42:24;29.00;55.50
70456;DHT22;57916;51.996;5.180;2023-09-12T15:45:04;29.00;55.00
70456;DHT22;57916;51.996;5.180;2023-09-12T15:47:31;29.00;55.20
70456;DHT22;57916;51.996;5.180;2023-09-12T15:49:59;28.90;54.30